sensor_id;sensor_type;location;lat;lon;timestamp;temperature;humidity
5520;DHT22;2782;52.362;10.012;2024-03-08T00:00:35;18.20;67.90
5520;DHT22;2782;52.362;10.012;2024-03-08T00:01:38;18.20;68.10
5520;DHT22;2782;52.362;10.012;2024-03-08T00:02:39;18.20;68.80
5520;DHT22;2782;52.362;10.012;2024-03-08T00:03:39;18.20;68.90
5520;DHT22;2782;52.362;10.012;2024-03-08T00:04:41;18.20;69.10
5520;DHT22;2782;52.362;10.012;2024-03-08T00:05:42;18.20;69.60
5520;DHT22;2782;52.362;10.012;2024-03-08T00:06:44;18.20;69.80
5520;DHT22;2782;52.362;10.012;2024-03-08T00:07:46;18.20;69.80
5520;DHT22;2782;52.362;10.012;2024-03-08T00:08:47;18.20;69.70
5520;DHT22;2782;52.362;10.012;2024-03-08T00:09:48;18.20;69.60
5520;DHT22;2782;52.362;10.012;2024-03-08T00:10:49;18.20;69.80
5520;DHT22;2782;52.362;10.012;2024-03-08T00:11:50;18.20;69.70
5520;DHT22;2782;52.362;10.012;2024-03-08T00:12:52;18.20;69.80
5520;DHT22;2782;52.362;10.012;2024-03-08T00:13:53;18.20;69.80
5520;DHT22;2782;52.362;10.012;2024-03-08T00:14:55;18.20;69.80
5520;DHT22;2782;52.362;10.012;2024-03-08T00:15:57;18.20;69.80
5520;DHT22;2782;52.362;10.012;2024-03-08T00:16:58;18.20;70.00
5520;DHT22;2782;52.362;10.012;2024-03-08T00:17:58;18.20;69.80
5520;DHT22;2782;52.362;10.012;2024-03-08T00:19:00;18.20;69.70
5520;DHT22;2782;52.362;10.012;2024-03-08T00:20:00;18.20;69.80
5520;DHT22;2782;52.362;10.012;2024-03-08T00:21:04;18.20;69.80
5520;DHT22;2782;52.362;10.012;2024-03-08T00:22:05;18.20;70.50
5520;DHT22;2782;52.362;10.012;2024-03-08T00:23:06;18.20;69.80
5520;DHT22;2782;52.362;10.012;2024-03-08T00:24:07;18.20;69.80
5520;DHT22;2782;52.362;10.012;2024-03-08T00:25:09;18.20;69.80
5520;DHT22;2782;52.362;10.012;2024-03-08T00:26:10;18.20;69.80
5520;DHT22;2782;52.362;10.012;2024-03-08T00:27:12;18.20;69.70
5520;DHT22;2782;52.362;10.012;2024-03-08T00:28:12;18.20;69.70
5520;DHT22;2782;52.362;10.012;2024-03-08T00:29:15;18.20;69.70
5520;DHT22;2782;52.362;10.012;2024-03-08T00:30:17;18.20;69.60
5520;DHT22;2782;52.362;10.012;2024-03-08T00:31:19;18.20;69.70
5520;DHT22;2782;52.362;10.012;2024-03-08T00:32:19;18.20;69.70
5520;DHT22;2782;52.362;10.012;2024-03-08T00:33:20;18.20;69.60
5520;DHT22;2782;52.362;10.012;2024-03-08T00:34:21;18.20;69.60
5520;DHT22;2782;52.362;10.012;2024-03-08T00:35:23;18.20;69.50
5520;DHT22;2782;52.362;10.012;2024-03-08T00:36:24;18.20;69.50
5520;DHT22;2782;52.362;10.012;2024-03-08T00:37:25;18.10;69.20
5520;DHT22;2782;52.362;10.012;2024-03-08T00:38:27;18.20;69.30
5520;DHT22;2782;52.362;10.012;2024-03-08T00:39:28;18.20;69.30
5520;DHT22;2782;52.362;10.012;2024-03-08T00:40:29;18.20;69.30
5520;DHT22;2782;52.362;10.012;2024-03-08T00:41:30;18.10;69.10
5520;DHT22;2782;52.362;10.012;2024-03-08T00:42:32;18.10;69.00
5520;DHT22;2782;52.362;10.012;2024-03-08T00:43:33;18.10;69.00
5520;DHT22;2782;52.362;10.012;2024-03-08T00:44:35;18.10;68.90
5520;DHT22;2782;52.362;10.012;2024-03-08T00:45:37;18.10;68.90
5520;DHT22;2782;52.362;10.012;2024-03-08T00:46:39;18.10;68.90
5520;DHT22;2782;52.362;10.012;2024-03-08T00:47:39;18.10;68.90
5520;DHT22;2782;52.362;10.012;2024-03-08T00:48:44;18.10;68.70
5520;DHT22;2782;52.362;10.012;2024-03-08T00:49:45;18.10;68.70
5520;DHT22;2782;52.362;10.012;2024-03-08T00:50:46;18.10;68.70
5520;DHT22;2782;52.362;10.012;2024-03-08T00:51:47;18.10;68.60
5520;DHT22;2782;52.362;10.012;2024-03-08T00:52:49;18.10;68.70
5520;DHT22;2782;52.362;10.012;2024-03-08T00:53:50;18.10;68.60
5520;DHT22;2782;52.362;10.012;2024-03-08T00:54:52;18.10;68.60
5520;DHT22;2782;52.362;10.012;2024-03-08T00:55:52;18.10;68.50
5520;DHT22;2782;52.362;10.012;2024-03-08T00:56:55;18.10;68.50
5520;DHT22;2782;52.362;10.012;2024-03-08T00:57:56;18.10;68.40
5520;DHT22;2782;52.362;10.012;2024-03-08T00:58:57;18.10;68.40
5520;DHT22;2782;52.362;10.012;2024-03-08T00:59:59;18.10;68.40
5520;DHT22;2782;52.362;10.012;2024-03-08T01:01:03;18.10;68.40
5520;DHT22;2782;52.362;10.012;2024-03-08T01:02:03;18.10;68.30
5520;DHT22;2782;52.362;10.012;2024-03-08T01:03:04;18.10;68.30
5520;DHT22;2782;52.362;10.012;2024-03-08T01:04:07;18.10;68.20
5520;DHT22;2782;52.362;10.012;2024-03-08T01:05:08;18.10;68.20
5520;DHT22;2782;52.362;10.012;2024-03-08T01:06:10;18.10;68.20
5520;DHT22;2782;52.362;10.012;2024-03-08T01:07:12;18.10;68.20
5520;DHT22;2782;52.362;10.012;2024-03-08T01:08:13;18.10;68.20
5520;DHT22;2782;52.362;10.012;2024-03-08T01:09:14;18.00;68.00
5520;DHT22;2782;52.362;10.012;2024-03-08T01:10:17;18.10;68.00
5520;DHT22;2782;52.362;10.012;2024-03-08T01:11:18;18.10;67.90
5520;DHT22;2782;52.362;10.012;2024-03-08T01:12:20;18.00;67.80
5520;DHT22;2782;52.362;10.012;2024-03-08T01:13:20;18.00;67.70
5520;DHT22;2782;52.362;10.012;2024-03-08T01:14:23;18.00;67.80
5520;DHT22;2782;52.362;10.012;2024-03-08T01:15:24;18.00;67.80
5520;DHT22;2782;52.362;10.012;2024-03-08T01:16:27;18.00;67.70
5520;DHT22;2782;52.362;10.012;2024-03-08T01:17:27;18.00;67.70
5520;DHT22;2782;52.362;10.012;2024-03-08T01:18:29;18.00;67.70
5520;DHT22;2782;52.362;10.012;2024-03-08T01:19:29;18.00;67.60
5520;DHT22;2782;52.362;10.012;2024-03-08T01:20:32;18.00;67.60
5520;DHT22;2782;52.362;10.012;2024-03-08T01:21:33;18.00;67.50
5520;DHT22;2782;52.362;10.012;2024-03-08T01:22:36;18.00;67.50
5520;DHT22;2782;52.362;10.012;2024-03-08T01:23:37;18.00;67.50
5520;DHT22;2782;52.362;10.012;2024-03-08T01:24:39;18.00;67.40
5520;DHT22;2782;52.362;10.012;2024-03-08T01:25:40;18.00;67.40
5520;DHT22;2782;52.362;10.012;2024-03-08T01:26:41;18.00;67.40
5520;DHT22;2782;52.362;10.012;2024-03-08T01:27:42;18.00;67.40
5520;DHT22;2782;52.362;10.012;2024-03-08T01:28:43;18.00;67.40
5520;DHT22;2782;52.362;10.012;2024-03-08T01:29:44;18.00;67.40
5520;DHT22;2782;52.362;10.012;2024-03-08T01:30:46;18.00;67.30
5520;DHT22;2782;52.362;10.012;2024-03-08T01:31:48;18.00;67.40
5520;DHT22;2782;52.362;10.012;2024-03-08T01:32:49;18.00;67.30
5520;DHT22;2782;52.362;10.012;2024-03-08T01:33:50;18.00;67.30
5520;DHT22;2782;52.362;10.012;2024-03-08T01:34:51;18.00;67.30
5520;DHT22;2782;52.362;10.012;2024-03-08T01:35:52;18.00;67.30
5520;DHT22;2782;52.362;10.012;2024-03-08T01:36:53;18.00;67.30
5520;DHT22;2782;52.362;10.012;2024-03-08T01:37:56;18.00;67.30
5520;DHT22;2782;52.362;10.012;2024-03-08T01:38:56;17.90;67.10
5520;DHT22;2782;52.362;10.012;2024-03-08T01:39:58;17.90;67.10
5520;DHT22;2782;52.362;10.012;2024-03-08T01:40:58;17.90;67.00
5520;DHT22;2782;52.362;10.012;2024-03-08T01:42:00;17.90;67.00
5520;DHT22;2782;52.362;10.012;2024-03-08T01:43:18;17.90;66.90
5520;DHT22;2782;52.362;10.012;2024-03-08T01:44:19;17.90;66.90
5520;DHT22;2782;52.362;10.012;2024-03-08T01:45:21;17.90;66.90
5520;DHT22;2782;52.362;10.012;2024-03-08T01:46:21;17.90;66.80
5520;DHT22;2782;52.362;10.012;2024-03-08T01:47:25;18.00;66.90
5520;DHT22;2782;52.362;10.012;2024-03-08T01:48:26;17.90;66.90
5520;DHT22;2782;52.362;10.012;2024-03-08T01:49:28;17.90;66.80
5520;DHT22;2782;52.362;10.012;2024-03-08T01:50:29;17.90;66.80
5520;DHT22;2782;52.362;10.012;2024-03-08T01:51:31;17.90;66.80
5520;DHT22;2782;52.362;10.012;2024-03-08T01:52:32;17.90;66.70
5520;DHT22;2782;52.362;10.012;2024-03-08T01:53:34;17.90;66.70
5520;DHT22;2782;52.362;10.012;2024-03-08T01:54:36;17.90;66.70
5520;DHT22;2782;52.362;10.012;2024-03-08T01:55:38;17.90;66.60
5520;DHT22;2782;52.362;10.012;2024-03-08T01:56:39;17.90;66.60
5520;DHT22;2782;52.362;10.012;2024-03-08T01:57:41;17.90;66.60
5520;DHT22;2782;52.362;10.012;2024-03-08T01:58:43;17.90;66.60
5520;DHT22;2782;52.362;10.012;2024-03-08T01:59:44;17.90;66.60
5520;DHT22;2782;52.362;10.012;2024-03-08T02:00:46;17.90;66.50
5520;DHT22;2782;52.362;10.012;2024-03-08T02:01:49;17.90;66.40
5520;DHT22;2782;52.362;10.012;2024-03-08T02:02:54;17.90;66.40
5520;DHT22;2782;52.362;10.012;2024-03-08T02:03:55;17.90;66.40
5520;DHT22;2782;52.362;10.012;2024-03-08T02:04:56;17.90;66.40
5520;DHT22;2782;52.362;10.012;2024-03-08T02:05:58;17.90;66.40
5520;DHT22;2782;52.362;10.012;2024-03-08T02:06:59;17.90;66.40
5520;DHT22;2782;52.362;10.012;2024-03-08T02:08:01;17.90;67.00
5520;DHT22;2782;52.362;10.012;2024-03-08T02:09:02;17.90;66.20
5520;DHT22;2782;52.362;10.012;2024-03-08T02:10:07;17.90;66.10
5520;DHT22;2782;52.362;10.012;2024-03-08T02:11:08;17.90;66.10
5520;DHT22;2782;52.362;10.012;2024-03-08T02:12:10;17.90;66.20
5520;DHT22;2782;52.362;10.012;2024-03-08T02:13:11;17.90;66.20
5520;DHT22;2782;52.362;10.012;2024-03-08T02:14:12;17.80;66.10
5520;DHT22;2782;52.362;10.012;2024-03-08T02:15:13;17.90;66.10
5520;DHT22;2782;52.362;10.012;2024-03-08T02:16:20;17.90;66.90
5520;DHT22;2782;52.362;10.012;2024-03-08T02:17:21;17.90;66.10
5520;DHT22;2782;52.362;10.012;2024-03-08T02:18:24;17.90;66.00
5520;DHT22;2782;52.362;10.012;2024-03-08T02:19:24;17.90;65.90
5520;DHT22;2782;52.362;10.012;2024-03-08T02:20:29;17.80;65.80
5520;DHT22;2782;52.362;10.012;2024-03-08T02:21:30;17.90;65.90
5520;DHT22;2782;52.362;10.012;2024-03-08T02:22:32;17.80;65.80
5520;DHT22;2782;52.362;10.012;2024-03-08T02:23:33;17.80;65.80
5520;DHT22;2782;52.362;10.012;2024-03-08T02:24:35;17.80;65.70
5520;DHT22;2782;52.362;10.012;2024-03-08T02:25:35;17.80;65.70
5520;DHT22;2782;52.362;10.012;2024-03-08T02:26:37;17.80;65.70
5520;DHT22;2782;52.362;10.012;2024-03-08T02:27:38;17.80;65.70
5520;DHT22;2782;52.362;10.012;2024-03-08T02:28:39;17.80;65.70
5520;DHT22;2782;52.362;10.012;2024-03-08T02:29:42;17.80;65.70
5520;DHT22;2782;52.362;10.012;2024-03-08T02:30:45;17.80;65.70
5520;DHT22;2782;52.362;10.012;2024-03-08T02:31:47;17.80;65.70
5520;DHT22;2782;52.362;10.012;2024-03-08T02:32:48;17.80;65.60
5520;DHT22;2782;52.362;10.012;2024-03-08T02:33:49;17.80;65.60
5520;DHT22;2782;52.362;10.012;2024-03-08T02:34:51;17.80;65.60
5520;DHT22;2782;52.362;10.012;2024-03-08T02:35:52;17.80;65.60
5520;DHT22;2782;52.362;10.012;2024-03-08T02:36:54;17.80;65.60
5520;DHT22;2782;52.362;10.012;2024-03-08T02:37:56;17.80;65.50
5520;DHT22;2782;52.362;10.012;2024-03-08T02:38:58;17.80;65.50
5520;DHT22;2782;52.362;10.012;2024-03-08T02:39:59;17.80;65.50
5520;DHT22;2782;52.362;10.012;2024-03-08T02:41:01;17.80;65.50
5520;DHT22;2782;52.362;10.012;2024-03-08T02:42:01;17.80;65.50
5520;DHT22;2782;52.362;10.012;2024-03-08T02:43:02;17.80;65.50
5520;DHT22;2782;52.362;10.012;2024-03-08T02:44:05;17.80;65.50
5520;DHT22;2782;52.362;10.012;2024-03-08T02:45:07;17.80;65.50
5520;DHT22;2782;52.362;10.012;2024-03-08T02:46:10;17.80;65.40
5520;DHT22;2782;52.362;10.012;2024-03-08T02:47:11;17.80;65.40
5520;DHT22;2782;52.362;10.012;2024-03-08T02:48:13;17.80;65.40
5520;DHT22;2782;52.362;10.012;2024-03-08T02:49:14;17.80;65.40
5520;DHT22;2782;52.362;10.012;2024-03-08T02:50:16;17.80;65.50
5520;DHT22;2782;52.362;10.012;2024-03-08T02:51:18;17.80;65.40
5520;DHT22;2782;52.362;10.012;2024-03-08T02:52:20;17.80;65.40
5520;DHT22;2782;52.362;10.012;2024-03-08T02:53:21;17.80;65.40
5520;DHT22;2782;52.362;10.012;2024-03-08T02:54:25;17.80;65.40
5520;DHT22;2782;52.362;10.012;2024-03-08T02:55:25;17.80;65.30
5520;DHT22;2782;52.362;10.012;2024-03-08T02:56:27;17.80;65.40
5520;DHT22;2782;52.362;10.012;2024-03-08T02:57:27;17.80;65.40
5520;DHT22;2782;52.362;10.012;2024-03-08T02:58:28;17.80;65.40
5520;DHT22;2782;52.362;10.012;2024-03-08T02:59:30;17.80;65.40
5520;DHT22;2782;52.362;10.012;2024-03-08T03:03:13;17.70;65.20
5520;DHT22;2782;52.362;10.012;2024-03-08T03:04:15;17.70;65.20
5520;DHT22;2782;52.362;10.012;2024-03-08T03:05:16;17.70;65.10
5520;DHT22;2782;52.362;10.012;2024-03-08T03:06:18;17.70;65.20
5520;DHT22;2782;52.362;10.012;2024-03-08T03:07:21;17.70;65.20
5520;DHT22;2782;52.362;10.012;2024-03-08T03:08:22;17.70;65.20
5520;DHT22;2782;52.362;10.012;2024-03-08T03:09:24;17.70;65.20
5520;DHT22;2782;52.362;10.012;2024-03-08T03:10:27;17.70;65.20
5520;DHT22;2782;52.362;10.012;2024-03-08T03:11:29;17.70;65.10
5520;DHT22;2782;52.362;10.012;2024-03-08T03:12:31;17.70;65.10
5520;DHT22;2782;52.362;10.012;2024-03-08T03:13:34;17.70;65.20
5520;DHT22;2782;52.362;10.012;2024-03-08T03:14:35;17.70;65.20
5520;DHT22;2782;52.362;10.012;2024-03-08T03:15:38;17.70;65.10
5520;DHT22;2782;52.362;10.012;2024-03-08T03:16:42;17.70;65.20
5520;DHT22;2782;52.362;10.012;2024-03-08T03:17:46;17.70;65.10
5520;DHT22;2782;52.362;10.012;2024-03-08T03:18:47;17.70;65.10
5520;DHT22;2782;52.362;10.012;2024-03-08T03:19:49;17.70;65.10
5520;DHT22;2782;52.362;10.012;2024-03-08T03:20:50;17.70;65.10
5520;DHT22;2782;52.362;10.012;2024-03-08T03:21:53;17.70;65.00
5520;DHT22;2782;52.362;10.012;2024-03-08T03:22:54;17.70;65.00
5520;DHT22;2782;52.362;10.012;2024-03-08T03:23:57;17.70;65.00
5520;DHT22;2782;52.362;10.012;2024-03-08T03:24:59;17.70;65.00
5520;DHT22;2782;52.362;10.012;2024-03-08T03:26:01;17.70;65.00
5520;DHT22;2782;52.362;10.012;2024-03-08T03:27:02;17.70;65.00
5520;DHT22;2782;52.362;10.012;2024-03-08T03:28:10;17.70;65.00
5520;DHT22;2782;52.362;10.012;2024-03-08T03:29:15;17.70;64.90
5520;DHT22;2782;52.362;10.012;2024-03-08T03:30:17;17.70;64.90
5520;DHT22;2782;52.362;10.012;2024-03-08T03:31:21;17.70;64.90
5520;DHT22;2782;52.362;10.012;2024-03-08T03:32:24;17.70;64.80
5520;DHT22;2782;52.362;10.012;2024-03-08T03:33:25;17.70;64.80
5520;DHT22;2782;52.362;10.012;2024-03-08T03:34:26;17.70;64.80
5520;DHT22;2782;52.362;10.012;2024-03-08T03:35:27;17.70;64.80
5520;DHT22;2782;52.362;10.012;2024-03-08T03:36:29;17.60;64.70
5520;DHT22;2782;52.362;10.012;2024-03-08T03:37:31;17.70;64.70
5520;DHT22;2782;52.362;10.012;2024-03-08T03:38:32;17.70;64.70
5520;DHT22;2782;52.362;10.012;2024-03-08T03:39:35;17.60;64.70
5520;DHT22;2782;52.362;10.012;2024-03-08T03:40:41;17.70;64.80
5520;DHT22;2782;52.362;10.012;2024-03-08T03:41:41;17.60;64.80
5520;DHT22;2782;52.362;10.012;2024-03-08T03:42:45;17.60;64.80
5520;DHT22;2782;52.362;10.012;2024-03-08T03:43:46;17.60;64.80
5520;DHT22;2782;52.362;10.012;2024-03-08T03:44:47;17.60;64.70
5520;DHT22;2782;52.362;10.012;2024-03-08T03:45:49;17.60;64.70
5520;DHT22;2782;52.362;10.012;2024-03-08T03:46:50;17.60;64.70
5520;DHT22;2782;52.362;10.012;2024-03-08T03:47:52;17.60;64.80
5520;DHT22;2782;52.362;10.012;2024-03-08T03:48:53;17.70;64.80
5520;DHT22;2782;52.362;10.012;2024-03-08T03:49:55;17.70;64.80
5520;DHT22;2782;52.362;10.012;2024-03-08T03:50:56;17.70;64.80
5520;DHT22;2782;52.362;10.012;2024-03-08T03:51:58;17.70;64.80
5520;DHT22;2782;52.362;10.012;2024-03-08T03:53:00;17.70;64.80
5520;DHT22;2782;52.362;10.012;2024-03-08T03:54:02;17.70;64.80
5520;DHT22;2782;52.362;10.012;2024-03-08T03:55:04;17.70;64.70
5520;DHT22;2782;52.362;10.012;2024-03-08T03:56:06;17.70;64.70
5520;DHT22;2782;52.362;10.012;2024-03-08T03:57:07;17.70;64.60
5520;DHT22;2782;52.362;10.012;2024-03-08T03:58:09;17.70;64.60
5520;DHT22;2782;52.362;10.012;2024-03-08T03:59:10;17.70;64.60
5520;DHT22;2782;52.362;10.012;2024-03-08T04:00:13;17.70;64.60
5520;DHT22;2782;52.362;10.012;2024-03-08T04:01:13;17.70;64.50
5520;DHT22;2782;52.362;10.012;2024-03-08T04:02:15;17.70;64.50
5520;DHT22;2782;52.362;10.012;2024-03-08T04:03:15;17.70;64.40
5520;DHT22;2782;52.362;10.012;2024-03-08T04:04:17;17.70;64.40
5520;DHT22;2782;52.362;10.012;2024-03-08T04:05:18;17.70;64.30
5520;DHT22;2782;52.362;10.012;2024-03-08T04:06:20;17.70;64.30
5520;DHT22;2782;52.362;10.012;2024-03-08T04:07:21;17.80;64.30
5520;DHT22;2782;52.362;10.012;2024-03-08T04:08:24;17.80;64.30
5520;DHT22;2782;52.362;10.012;2024-03-08T04:09:24;17.80;64.20
5520;DHT22;2782;52.362;10.012;2024-03-08T04:10:26;17.80;64.20
5520;DHT22;2782;52.362;10.012;2024-03-08T04:11:27;17.80;64.20
5520;DHT22;2782;52.362;10.012;2024-03-08T04:12:28;17.80;64.10
5520;DHT22;2782;52.362;10.012;2024-03-08T04:13:30;17.80;64.10
5520;DHT22;2782;52.362;10.012;2024-03-08T04:14:31;17.80;64.00
5520;DHT22;2782;52.362;10.012;2024-03-08T04:15:32;17.80;64.00
5520;DHT22;2782;52.362;10.012;2024-03-08T04:16:34;17.80;63.90
5520;DHT22;2782;52.362;10.012;2024-03-08T04:17:34;17.80;63.90
5520;DHT22;2782;52.362;10.012;2024-03-08T04:18:37;17.80;63.90
5520;DHT22;2782;52.362;10.012;2024-03-08T04:19:38;17.80;63.90
5520;DHT22;2782;52.362;10.012;2024-03-08T04:20:40;17.80;63.90
5520;DHT22;2782;52.362;10.012;2024-03-08T04:21:40;17.80;63.80
5520;DHT22;2782;52.362;10.012;2024-03-08T04:22:42;17.80;63.90
5520;DHT22;2782;52.362;10.012;2024-03-08T04:23:45;17.80;63.80
5520;DHT22;2782;52.362;10.012;2024-03-08T04:24:47;17.80;63.80
5520;DHT22;2782;52.362;10.012;2024-03-08T04:25:48;17.80;63.70
5520;DHT22;2782;52.362;10.012;2024-03-08T04:26:49;17.80;63.70
5520;DHT22;2782;52.362;10.012;2024-03-08T04:27:51;17.80;63.70
5520;DHT22;2782;52.362;10.012;2024-03-08T04:28:53;17.80;63.70
5520;DHT22;2782;52.362;10.012;2024-03-08T04:29:53;17.80;63.70
5520;DHT22;2782;52.362;10.012;2024-03-08T04:30:54;17.80;63.70
5520;DHT22;2782;52.362;10.012;2024-03-08T04:31:56;17.80;63.60
5520;DHT22;2782;52.362;10.012;2024-03-08T04:32:56;17.80;63.60
5520;DHT22;2782;52.362;10.012;2024-03-08T04:33:58;17.80;63.60
5520;DHT22;2782;52.362;10.012;2024-03-08T04:34:58;17.80;63.60
5520;DHT22;2782;52.362;10.012;2024-03-08T04:36:01;17.80;63.50
5520;DHT22;2782;52.362;10.012;2024-03-08T04:37:04;17.80;63.60
5520;DHT22;2782;52.362;10.012;2024-03-08T04:38:06;17.80;63.50
5520;DHT22;2782;52.362;10.012;2024-03-08T04:39:09;17.80;63.50
5520;DHT22;2782;52.362;10.012;2024-03-08T04:40:13;17.80;63.50
5520;DHT22;2782;52.362;10.012;2024-03-08T04:41:15;17.80;63.50
5520;DHT22;2782;52.362;10.012;2024-03-08T04:42:15;17.80;63.50
5520;DHT22;2782;52.362;10.012;2024-03-08T04:43:18;17.80;63.50
5520;DHT22;2782;52.362;10.012;2024-03-08T04:44:19;17.70;63.40
5520;DHT22;2782;52.362;10.012;2024-03-08T04:45:20;17.80;63.40
5520;DHT22;2782;52.362;10.012;2024-03-08T04:46:22;17.70;63.30
5520;DHT22;2782;52.362;10.012;2024-03-08T04:47:23;17.70;63.20
5520;DHT22;2782;52.362;10.012;2024-03-08T04:48:25;17.70;63.20
5520;DHT22;2782;52.362;10.012;2024-03-08T04:49:27;17.70;63.20
5520;DHT22;2782;52.362;10.012;2024-03-08T04:50:29;17.70;63.10
5520;DHT22;2782;52.362;10.012;2024-03-08T04:51:30;17.70;63.10
5520;DHT22;2782;52.362;10.012;2024-03-08T04:52:31;17.70;63.00
5520;DHT22;2782;52.362;10.012;2024-03-08T04:53:32;17.70;63.00
5520;DHT22;2782;52.362;10.012;2024-03-08T04:54:36;17.70;63.00
5520;DHT22;2782;52.362;10.012;2024-03-08T04:55:37;17.70;63.00
5520;DHT22;2782;52.362;10.012;2024-03-08T04:56:38;17.70;62.90
5520;DHT22;2782;52.362;10.012;2024-03-08T04:57:40;17.70;62.90
5520;DHT22;2782;52.362;10.012;2024-03-08T04:58:42;17.70;62.80
5520;DHT22;2782;52.362;10.012;2024-03-08T04:59:43;17.70;62.80
5520;DHT22;2782;52.362;10.012;2024-03-08T05:00:44;17.70;62.70
5520;DHT22;2782;52.362;10.012;2024-03-08T05:01:46;17.70;62.70
5520;DHT22;2782;52.362;10.012;2024-03-08T05:02:47;17.70;62.70
5520;DHT22;2782;52.362;10.012;2024-03-08T05:03:49;17.70;62.70
5520;DHT22;2782;52.362;10.012;2024-03-08T05:04:50;17.70;62.60
5520;DHT22;2782;52.362;10.012;2024-03-08T05:05:52;17.70;62.60
5520;DHT22;2782;52.362;10.012;2024-03-08T05:06:53;17.70;62.60
5520;DHT22;2782;52.362;10.012;2024-03-08T05:07:55;17.70;62.60
5520;DHT22;2782;52.362;10.012;2024-03-08T05:08:55;17.70;62.70
5520;DHT22;2782;52.362;10.012;2024-03-08T05:09:58;17.70;62.60
5520;DHT22;2782;52.362;10.012;2024-03-08T05:10:59;17.70;62.70
5520;DHT22;2782;52.362;10.012;2024-03-08T05:12:04;17.70;62.70
5520;DHT22;2782;52.362;10.012;2024-03-08T05:13:04;17.70;62.70
5520;DHT22;2782;52.362;10.012;2024-03-08T05:14:06;17.70;62.70
5520;DHT22;2782;52.362;10.012;2024-03-08T05:15:07;17.70;62.70
5520;DHT22;2782;52.362;10.012;2024-03-08T05:16:09;17.70;62.80
5520;DHT22;2782;52.362;10.012;2024-03-08T05:17:09;17.70;62.80
5520;DHT22;2782;52.362;10.012;2024-03-08T05:18:11;17.60;62.70
5520;DHT22;2782;52.362;10.012;2024-03-08T05:19:15;17.70;62.80
5520;DHT22;2782;52.362;10.012;2024-03-08T05:20:18;17.60;62.70
5520;DHT22;2782;52.362;10.012;2024-03-08T05:21:19;17.60;62.60
5520;DHT22;2782;52.362;10.012;2024-03-08T05:22:20;17.70;62.80
5520;DHT22;2782;52.362;10.012;2024-03-08T05:23:22;17.60;62.70
5520;DHT22;2782;52.362;10.012;2024-03-08T05:24:22;17.60;62.70
5520;DHT22;2782;52.362;10.012;2024-03-08T05:25:25;17.60;62.70
5520;DHT22;2782;52.362;10.012;2024-03-08T05:26:26;17.60;62.70
5520;DHT22;2782;52.362;10.012;2024-03-08T05:27:28;17.60;62.70
5520;DHT22;2782;52.362;10.012;2024-03-08T05:28:29;17.60;62.70
5520;DHT22;2782;52.362;10.012;2024-03-08T05:29:30;17.60;62.80
5520;DHT22;2782;52.362;10.012;2024-03-08T05:30:31;17.60;62.80
5520;DHT22;2782;52.362;10.012;2024-03-08T05:31:38;17.60;62.70
5520;DHT22;2782;52.362;10.012;2024-03-08T05:32:40;17.60;62.70
5520;DHT22;2782;52.362;10.012;2024-03-08T05:33:41;17.60;62.70
5520;DHT22;2782;52.362;10.012;2024-03-08T05:34:43;17.60;62.70
5520;DHT22;2782;52.362;10.012;2024-03-08T05:35:45;17.70;62.80
5520;DHT22;2782;52.362;10.012;2024-03-08T05:36:46;17.70;62.80
5520;DHT22;2782;52.362;10.012;2024-03-08T05:37:47;17.70;62.80
5520;DHT22;2782;52.362;10.012;2024-03-08T05:38:48;17.70;62.80
5520;DHT22;2782;52.362;10.012;2024-03-08T05:39:50;17.70;62.80
5520;DHT22;2782;52.362;10.012;2024-03-08T05:40:52;17.70;62.80
5520;DHT22;2782;52.362;10.012;2024-03-08T05:41:55;17.70;62.80
5520;DHT22;2782;52.362;10.012;2024-03-08T05:42:56;17.70;62.80
5520;DHT22;2782;52.362;10.012;2024-03-08T05:43:57;17.70;62.80
5520;DHT22;2782;52.362;10.012;2024-03-08T05:44:58;17.70;62.80
5520;DHT22;2782;52.362;10.012;2024-03-08T05:46:00;17.70;62.80
5520;DHT22;2782;52.362;10.012;2024-03-08T05:47:00;17.70;62.80
5520;DHT22;2782;52.362;10.012;2024-03-08T05:48:02;17.70;62.80
5520;DHT22;2782;52.362;10.012;2024-03-08T05:49:03;17.70;62.80
5520;DHT22;2782;52.362;10.012;2024-03-08T05:50:06;17.70;62.80
5520;DHT22;2782;52.362;10.012;2024-03-08T05:51:08;17.70;62.80
5520;DHT22;2782;52.362;10.012;2024-03-08T05:52:10;17.70;62.80
5520;DHT22;2782;52.362;10.012;2024-03-08T05:53:10;17.70;62.80
5520;DHT22;2782;52.362;10.012;2024-03-08T05:54:12;17.80;62.90
5520;DHT22;2782;52.362;10.012;2024-03-08T05:55:13;17.70;62.70
5520;DHT22;2782;52.362;10.012;2024-03-08T05:56:16;17.80;62.80
5520;DHT22;2782;52.362;10.012;2024-03-08T05:57:17;17.80;62.80
5520;DHT22;2782;52.362;10.012;2024-03-08T05:58:19;17.80;62.80
5520;DHT22;2782;52.362;10.012;2024-03-08T05:59:19;17.80;62.80
5520;DHT22;2782;52.362;10.012;2024-03-08T06:00:23;17.80;62.80
5520;DHT22;2782;52.362;10.012;2024-03-08T06:01:24;17.80;62.80
5520;DHT22;2782;52.362;10.012;2024-03-08T06:02:26;17.80;62.80
5520;DHT22;2782;52.362;10.012;2024-03-08T06:03:27;17.80;62.70
5520;DHT22;2782;52.362;10.012;2024-03-08T06:04:29;17.80;62.80
5520;DHT22;2782;52.362;10.012;2024-03-08T06:05:30;17.80;62.80
5520;DHT22;2782;52.362;10.012;2024-03-08T06:06:32;17.80;62.80
5520;DHT22;2782;52.362;10.012;2024-03-08T06:07:33;17.80;62.80
5520;DHT22;2782;52.362;10.012;2024-03-08T06:08:35;17.80;62.80
5520;DHT22;2782;52.362;10.012;2024-03-08T06:09:36;17.80;62.90
5520;DHT22;2782;52.362;10.012;2024-03-08T06:10:38;17.80;63.00
5520;DHT22;2782;52.362;10.012;2024-03-08T06:11:41;17.80;63.40
5520;DHT22;2782;52.362;10.012;2024-03-08T06:12:43;17.90;63.80
5520;DHT22;2782;52.362;10.012;2024-03-08T06:13:43;17.90;64.20
5520;DHT22;2782;52.362;10.012;2024-03-08T06:14:44;17.90;64.60
5520;DHT22;2782;52.362;10.012;2024-03-08T06:15:46;17.90;64.80
5520;DHT22;2782;52.362;10.012;2024-03-08T06:16:47;17.90;64.90
5520;DHT22;2782;52.362;10.012;2024-03-08T06:17:47;17.90;65.10
5520;DHT22;2782;52.362;10.012;2024-03-08T06:18:49;17.90;65.20
5520;DHT22;2782;52.362;10.012;2024-03-08T06:19:49;17.90;65.50
5520;DHT22;2782;52.362;10.012;2024-03-08T06:20:50;17.90;65.60
5520;DHT22;2782;52.362;10.012;2024-03-08T06:21:52;18.00;65.70
5520;DHT22;2782;52.362;10.012;2024-03-08T06:22:53;18.00;65.90
5520;DHT22;2782;52.362;10.012;2024-03-08T06:23:55;18.00;65.90
5520;DHT22;2782;52.362;10.012;2024-03-08T06:24:58;18.00;65.90
5520;DHT22;2782;52.362;10.012;2024-03-08T06:26:00;18.00;65.90
5520;DHT22;2782;52.362;10.012;2024-03-08T06:27:02;18.10;65.90
5520;DHT22;2782;52.362;10.012;2024-03-08T06:28:05;18.10;66.70
5520;DHT22;2782;52.362;10.012;2024-03-08T06:29:05;18.10;66.10
5520;DHT22;2782;52.362;10.012;2024-03-08T06:30:09;18.10;66.30
5520;DHT22;2782;52.362;10.012;2024-03-08T06:31:10;18.10;66.40
5520;DHT22;2782;52.362;10.012;2024-03-08T06:32:11;18.10;66.60
5520;DHT22;2782;52.362;10.012;2024-03-08T06:33:15;18.10;66.80
5520;DHT22;2782;52.362;10.012;2024-03-08T06:34:16;18.20;67.00
5520;DHT22;2782;52.362;10.012;2024-03-08T06:35:18;18.20;67.10
5520;DHT22;2782;52.362;10.012;2024-03-08T06:36:20;18.20;67.10
5520;DHT22;2782;52.362;10.012;2024-03-08T06:37:23;18.20;67.20
5520;DHT22;2782;52.362;10.012;2024-03-08T06:38:24;18.20;67.20